sensor_id;sensor_type;location;lat;lon;timestamp;P1;durP1;ratioP1;P2;durP2;ratioP2
18875;SDS011;9570;50.854;13.778;2022-10-31T00:01:14;3.70;;;2.00;;
18875;SDS011;9570;50.854;13.778;2022-10-31T00:03:48;10.17;;;2.27;;
18875;SDS011;9570;50.854;13.778;2022-10-31T00:06:14;10.90;;;3.03;;
18875;SDS011;9570;50.854;13.778;2022-10-31T00:08:43;4.97;;;2.20;;
18875;SDS011;9570;50.854;13.778;2022-10-31T00:11:09;7.20;;;2.20;;
18875;SDS011;9570;50.854;13.778;2022-10-31T00:13:36;6.70;;;2.27;;
18875;SDS011;9570;50.854;13.778;2022-10-31T00:16:01;6.97;;;2.30;;
18875;SDS011;9570;50.854;13.778;2022-10-31T00:18:27;4.93;;;2.33;;
18875;SDS011;9570;50.854;13.778;2022-10-31T00:20:59;6.77;;;1.90;;
18875;SDS011;9570;50.854;13.778;2022-10-31T00:23:26;6.20;;;2.30;;
18875;SDS011;9570;50.854;13.778;2022-10-31T00:25:51;3.27;;;2.20;;
18875;SDS011;9570;50.854;13.778;2022-10-31T00:28:17;5.33;;;2.10;;
18875;SDS011;9570;50.854;13.778;2022-10-31T00:30:42;5.40;;;2.20;;
18875;SDS011;9570;50.854;13.778;2022-10-31T00:33:08;6.90;;;2.07;;
18875;SDS011;9570;50.854;13.778;2022-10-31T00:35:33;5.07;;;2.30;;
18875;SDS011;9570;50.854;13.778;2022-10-31T00:37:59;5.63;;;2.17;;
18875;SDS011;9570;50.854;13.778;2022-10-31T00:40:24;8.57;;;2.67;;
18875;SDS011;9570;50.854;13.778;2022-10-31T00:42:50;8.57;;;2.53;;
18875;SDS011;9570;50.854;13.778;2022-10-31T00:45:15;5.17;;;2.50;;
18875;SDS011;9570;50.854;13.778;2022-10-31T00:47:41;7.13;;;2.37;;
18875;SDS011;9570;50.854;13.778;2022-10-31T00:50:06;8.80;;;2.47;;
18875;SDS011;9570;50.854;13.778;2022-10-31T00:52:32;11.63;;;2.60;;
18875;SDS011;9570;50.854;13.778;2022-10-31T00:54:58;6.60;;;2.30;;
18875;SDS011;9570;50.854;13.778;2022-10-31T00:57:24;7.57;;;2.10;;
18875;SDS011;9570;50.854;13.778;2022-10-31T00:59:49;5.57;;;2.03;;
18875;SDS011;9570;50.854;13.778;2022-10-31T01:02:15;12.20;;;3.37;;
18875;SDS011;9570;50.854;13.778;2022-10-31T01:04:40;6.17;;;2.07;;
18875;SDS011;9570;50.854;13.778;2022-10-31T01:07:06;4.90;;;2.33;;
18875;SDS011;9570;50.854;13.778;2022-10-31T01:09:31;6.27;;;2.30;;
18875;SDS011;9570;50.854;13.778;2022-10-31T01:11:57;2.97;;;2.00;;
18875;SDS011;9570;50.854;13.778;2022-10-31T01:14:22;8.47;;;2.10;;
18875;SDS011;9570;50.854;13.778;2022-10-31T01:16:48;8.93;;;2.37;;
18875;SDS011;9570;50.854;13.778;2022-10-31T01:19:13;11.67;;;2.30;;
18875;SDS011;9570;50.854;13.778;2022-10-31T01:21:39;6.03;;;2.20;;
18875;SDS011;9570;50.854;13.778;2022-10-31T01:24:04;7.33;;;2.67;;
18875;SDS011;9570;50.854;13.778;2022-10-31T01:26:31;6.30;;;1.90;;
18875;SDS011;9570;50.854;13.778;2022-10-31T01:28:58;7.57;;;2.40;;
18875;SDS011;9570;50.854;13.778;2022-10-31T01:31:26;5.47;;;2.27;;
18875;SDS011;9570;50.854;13.778;2022-10-31T01:33:54;11.13;;;2.50;;
18875;SDS011;9570;50.854;13.778;2022-10-31T01:36:21;6.63;;;2.10;;
18875;SDS011;9570;50.854;13.778;2022-10-31T01:38:56;7.30;;;2.03;;
18875;SDS011;9570;50.854;13.778;2022-10-31T01:41:25;11.37;;;2.13;;
18875;SDS011;9570;50.854;13.778;2022-10-31T01:43:54;7.20;;;2.20;;
18875;SDS011;9570;50.854;13.778;2022-10-31T01:46:23;6.63;;;2.03;;
18875;SDS011;9570;50.854;13.778;2022-10-31T01:49:01;14.80;;;2.67;;
18875;SDS011;9570;50.854;13.778;2022-10-31T01:51:31;7.30;;;2.67;;
18875;SDS011;9570;50.854;13.778;2022-10-31T01:54:03;10.43;;;2.70;;
18875;SDS011;9570;50.854;13.778;2022-10-31T01:56:32;7.33;;;2.87;;
18875;SDS011;9570;50.854;13.778;2022-10-31T01:59:03;6.83;;;2.00;;
18875;SDS011;9570;50.854;13.778;2022-10-31T02:01:32;11.07;;;2.30;;
18875;SDS011;9570;50.854;13.778;2022-10-31T02:03:57;4.47;;;2.20;;
18875;SDS011;9570;50.854;13.778;2022-10-31T02:06:44;6.73;;;2.23;;
18875;SDS011;9570;50.854;13.778;2022-10-31T02:09:16;5.13;;;2.20;;
18875;SDS011;9570;50.854;13.778;2022-10-31T02:11:48;6.63;;;2.47;;
18875;SDS011;9570;50.854;13.778;2022-10-31T02:14:17;8.07;;;2.47;;
18875;SDS011;9570;50.854;13.778;2022-10-31T02:16:45;7.23;;;2.47;;
18875;SDS011;9570;50.854;13.778;2022-10-31T02:19:12;9.67;;;2.50;;
18875;SDS011;9570;50.854;13.778;2022-10-31T02:21:50;9.87;;;2.30;;
18875;SDS011;9570;50.854;13.778;2022-10-31T02:27:09;5.43;;;2.37;;
18875;SDS011;9570;50.854;13.778;2022-10-31T02:30:00;5.20;;;2.30;;
18875;SDS011;9570;50.854;13.778;2022-10-31T02:35:21;7.07;;;2.40;;
18875;SDS011;9570;50.854;13.778;2022-10-31T02:44:00;7.47;;;2.97;;
18875;SDS011;9570;50.854;13.778;2022-10-31T02:49:29;10.07;;;2.60;;
18875;SDS011;9570;50.854;13.778;2022-10-31T02:52:12;7.90;;;2.23;;
18875;SDS011;9570;50.854;13.778;2022-10-31T02:54:39;3.97;;;2.67;;
18875;SDS011;9570;50.854;13.778;2022-10-31T02:57:05;7.27;;;2.43;;
18875;SDS011;9570;50.854;13.778;2022-10-31T02:59:32;6.07;;;2.17;;
18875;SDS011;9570;50.854;13.778;2022-10-31T03:02:09;8.63;;;2.70;;
18875;SDS011;9570;50.854;13.778;2022-10-31T03:07:30;3.93;;;2.00;;
18875;SDS011;9570;50.854;13.778;2022-10-31T03:12:59;9.37;;;2.63;;
18875;SDS011;9570;50.854;13.778;2022-10-31T03:15:43;3.80;;;2.03;;
18875;SDS011;9570;50.854;13.778;2022-10-31T03:20:52;5.73;;;2.17;;
18875;SDS011;9570;50.854;13.778;2022-10-31T03:23:24;12.13;;;3.07;;
18875;SDS011;9570;50.854;13.778;2022-10-31T03:25:51;7.07;;;2.80;;
18875;SDS011;9570;50.854;13.778;2022-10-31T03:28:21;6.33;;;2.63;;
18875;SDS011;9570;50.854;13.778;2022-10-31T03:30:52;7.77;;;2.20;;
18875;SDS011;9570;50.854;13.778;2022-10-31T03:33:22;5.73;;;2.43;;
18875;SDS011;9570;50.854;13.778;2022-10-31T03:35:52;8.43;;;2.80;;
18875;SDS011;9570;50.854;13.778;2022-10-31T03:38:20;8.03;;;2.73;;
18875;SDS011;9570;50.854;13.778;2022-10-31T03:40:47;5.53;;;2.50;;
18875;SDS011;9570;50.854;13.778;2022-10-31T03:43:26;5.23;;;2.30;;
18875;SDS011;9570;50.854;13.778;2022-10-31T03:45:55;9.53;;;2.70;;
18875;SDS011;9570;50.854;13.778;2022-10-31T03:48:21;12.30;;;2.50;;
18875;SDS011;9570;50.854;13.778;2022-10-31T03:50:59;8.17;;;2.43;;
18875;SDS011;9570;50.854;13.778;2022-10-31T03:53:52;5.97;;;2.40;;
18875;SDS011;9570;50.854;13.778;2022-10-31T03:58:58;5.13;;;2.00;;
18875;SDS011;9570;50.854;13.778;2022-10-31T04:01:39;6.23;;;2.40;;
18875;SDS011;9570;50.854;13.778;2022-10-31T04:04:10;6.90;;;2.27;;
18875;SDS011;9570;50.854;13.778;2022-10-31T04:06:36;4.33;;;2.50;;
18875;SDS011;9570;50.854;13.778;2022-10-31T04:09:05;4.53;;;2.30;;
18875;SDS011;9570;50.854;13.778;2022-10-31T04:11:34;5.60;;;2.00;;
18875;SDS011;9570;50.854;13.778;2022-10-31T04:14:04;4.53;;;2.10;;
18875;SDS011;9570;50.854;13.778;2022-10-31T04:16:31;6.67;;;2.47;;
18875;SDS011;9570;50.854;13.778;2022-10-31T04:18:56;5.33;;;2.13;;
18875;SDS011;9570;50.854;13.778;2022-10-31T04:21:28;3.80;;;2.33;;
18875;SDS011;9570;50.854;13.778;2022-10-31T04:23:55;9.37;;;2.63;;
18875;SDS011;9570;50.854;13.778;2022-10-31T04:26:21;8.70;;;2.50;;
18875;SDS011;9570;50.854;13.778;2022-10-31T04:28:46;6.30;;;2.43;;
18875;SDS011;9570;50.854;13.778;2022-10-31T04:31:12;7.87;;;2.30;;
18875;SDS011;9570;50.854;13.778;2022-10-31T04:33:38;5.67;;;2.10;;
18875;SDS011;9570;50.854;13.778;2022-10-31T04:36:03;6.77;;;2.47;;
18875;SDS011;9570;50.854;13.778;2022-10-31T04:38:29;4.57;;;2.60;;
18875;SDS011;9570;50.854;13.778;2022-10-31T04:40:55;5.60;;;2.10;;
18875;SDS011;9570;50.854;13.778;2022-10-31T04:43:21;9.87;;;2.67;;
18875;SDS011;9570;50.854;13.778;2022-10-31T04:45:46;6.33;;;2.47;;
18875;SDS011;9570;50.854;13.778;2022-10-31T04:48:12;9.43;;;2.40;;
18875;SDS011;9570;50.854;13.778;2022-10-31T04:50:38;11.17;;;2.43;;
18875;SDS011;9570;50.854;13.778;2022-10-31T04:53:03;7.67;;;2.47;;
18875;SDS011;9570;50.854;13.778;2022-10-31T04:55:29;6.30;;;2.37;;
18875;SDS011;9570;50.854;13.778;2022-10-31T04:57:55;6.17;;;2.60;;
18875;SDS011;9570;50.854;13.778;2022-10-31T05:00:21;7.07;;;2.50;;
18875;SDS011;9570;50.854;13.778;2022-10-31T05:02:47;6.67;;;2.30;;
18875;SDS011;9570;50.854;13.778;2022-10-31T05:05:15;8.10;;;2.70;;
18875;SDS011;9570;50.854;13.778;2022-10-31T05:07:43;8.17;;;2.73;;
18875;SDS011;9570;50.854;13.778;2022-10-31T05:10:13;6.77;;;2.80;;
18875;SDS011;9570;50.854;13.778;2022-10-31T05:12:51;7.07;;;2.40;;
18875;SDS011;9570;50.854;13.778;2022-10-31T05:15:22;5.63;;;2.30;;
18875;SDS011;9570;50.854;13.778;2022-10-31T05:17:48;6.57;;;2.50;;
18875;SDS011;9570;50.854;13.778;2022-10-31T05:20:15;7.73;;;2.20;;
18875;SDS011;9570;50.854;13.778;2022-10-31T05:22:51;5.43;;;2.80;;
18875;SDS011;9570;50.854;13.778;2022-10-31T05:25:18;6.63;;;2.87;;
18875;SDS011;9570;50.854;13.778;2022-10-31T05:27:46;8.87;;;2.57;;
18875;SDS011;9570;50.854;13.778;2022-10-31T05:30:14;7.83;;;2.50;;
18875;SDS011;9570;50.854;13.778;2022-10-31T05:32:43;7.13;;;2.40;;
18875;SDS011;9570;50.854;13.778;2022-10-31T05:35:11;9.53;;;2.70;;
18875;SDS011;9570;50.854;13.778;2022-10-31T05:37:38;8.97;;;2.83;;
18875;SDS011;9570;50.854;13.778;2022-10-31T05:40:04;8.37;;;2.60;;
18875;SDS011;9570;50.854;13.778;2022-10-31T05:42:31;5.27;;;2.43;;
18875;SDS011;9570;50.854;13.778;2022-10-31T05:44:57;6.43;;;2.77;;
18875;SDS011;9570;50.854;13.778;2022-10-31T05:47:22;6.37;;;2.60;;
18875;SDS011;9570;50.854;13.778;2022-10-31T05:49:48;4.97;;;2.60;;
18875;SDS011;9570;50.854;13.778;2022-10-31T05:52:13;8.33;;;2.60;;
18875;SDS011;9570;50.854;13.778;2022-10-31T05:54:39;10.00;;;2.97;;
18875;SDS011;9570;50.854;13.778;2022-10-31T05:57:05;7.00;;;2.97;;
18875;SDS011;9570;50.854;13.778;2022-10-31T05:59:30;9.97;;;2.50;;
18875;SDS011;9570;50.854;13.778;2022-10-31T06:01:56;6.23;;;2.40;;
18875;SDS011;9570;50.854;13.778;2022-10-31T06:04:21;5.17;;;2.60;;
18875;SDS011;9570;50.854;13.778;2022-10-31T06:06:47;6.50;;;2.70;;
18875;SDS011;9570;50.854;13.778;2022-10-31T06:09:12;8.83;;;2.80;;
18875;SDS011;9570;50.854;13.778;2022-10-31T06:11:38;5.10;;;2.33;;
18875;SDS011;9570;50.854;13.778;2022-10-31T06:14:04;4.40;;;2.40;;
18875;SDS011;9570;50.854;13.778;2022-10-31T06:16:30;6.23;;;2.60;;
18875;SDS011;9570;50.854;13.778;2022-10-31T06:18:56;6.20;;;2.57;;
18875;SDS011;9570;50.854;13.778;2022-10-31T06:21:21;5.67;;;2.60;;
18875;SDS011;9570;50.854;13.778;2022-10-31T06:23:47;4.10;;;2.50;;
18875;SDS011;9570;50.854;13.778;2022-10-31T06:26:12;3.80;;;2.60;;
18875;SDS011;9570;50.854;13.778;2022-10-31T06:28:38;11.50;;;2.50;;
18875;SDS011;9570;50.854;13.778;2022-10-31T06:31:04;9.17;;;2.70;;
18875;SDS011;9570;50.854;13.778;2022-10-31T06:33:29;5.27;;;2.77;;
18875;SDS011;9570;50.854;13.778;2022-10-31T06:35:55;3.60;;;2.73;;
18875;SDS011;9570;50.854;13.778;2022-10-31T06:38:20;8.77;;;3.10;;
18875;SDS011;9570;50.854;13.778;2022-10-31T06:40:46;4.53;;;2.43;;
18875;SDS011;9570;50.854;13.778;2022-10-31T06:43:11;10.67;;;2.60;;
18875;SDS011;9570;50.854;13.778;2022-10-31T06:45:37;8.80;;;2.87;;
18875;SDS011;9570;50.854;13.778;2022-10-31T06:48:03;9.37;;;2.90;;
18875;SDS011;9570;50.854;13.778;2022-10-31T06:50:28;4.50;;;2.70;;
18875;SDS011;9570;50.854;13.778;2022-10-31T06:52:55;7.63;;;3.00;;
18875;SDS011;9570;50.854;13.778;2022-10-31T06:55:22;7.77;;;3.30;;
18875;SDS011;9570;50.854;13.778;2022-10-31T06:57:55;6.47;;;3.10;;
18875;SDS011;9570;50.854;13.778;2022-10-31T07:00:23;7.00;;;2.77;;
18875;SDS011;9570;50.854;13.778;2022-10-31T07:02:56;28.87;;;4.47;;
18875;SDS011;9570;50.854;13.778;2022-10-31T07:05:22;10.27;;;3.43;;
18875;SDS011;9570;50.854;13.778;2022-10-31T07:08:02;7.10;;;3.20;;
18875;SDS011;9570;50.854;13.778;2022-10-31T07:10:30;11.00;;;3.80;;
18875;SDS011;9570;50.854;13.778;2022-10-31T07:12:57;10.40;;;4.50;;
18875;SDS011;9570;50.854;13.778;2022-10-31T07:15:25;10.03;;;5.03;;
18875;SDS011;9570;50.854;13.778;2022-10-31T07:17:52;6.50;;;3.83;;
18875;SDS011;9570;50.854;13.778;2022-10-31T07:20:18;6.90;;;4.27;;
18875;SDS011;9570;50.854;13.778;2022-10-31T07:22:44;7.27;;;4.10;;
18875;SDS011;9570;50.854;13.778;2022-10-31T07:25:10;8.23;;;3.83;;
18875;SDS011;9570;50.854;13.778;2022-10-31T07:27:36;8.70;;;3.70;;
18875;SDS011;9570;50.854;13.778;2022-10-31T07:30:07;7.87;;;4.00;;
18875;SDS011;9570;50.854;13.778;2022-10-31T07:32:40;8.47;;;3.83;;
18875;SDS011;9570;50.854;13.778;2022-10-31T07:35:10;6.50;;;3.70;;
18875;SDS011;9570;50.854;13.778;2022-10-31T07:37:38;8.00;;;4.77;;
18875;SDS011;9570;50.854;13.778;2022-10-31T07:40:04;13.40;;;4.53;;
18875;SDS011;9570;50.854;13.778;2022-10-31T07:42:35;10.37;;;4.70;;
18875;SDS011;9570;50.854;13.778;2022-10-31T07:45:04;7.70;;;4.00;;
18875;SDS011;9570;50.854;13.778;2022-10-31T07:47:40;7.63;;;3.80;;
18875;SDS011;9570;50.854;13.778;2022-10-31T07:50:14;8.00;;;3.50;;
18875;SDS011;9570;50.854;13.778;2022-10-31T07:52:41;8.47;;;3.60;;
18875;SDS011;9570;50.854;13.778;2022-10-31T07:55:07;8.80;;;4.17;;
18875;SDS011;9570;50.854;13.778;2022-10-31T07:57:33;5.60;;;3.47;;
18875;SDS011;9570;50.854;13.778;2022-10-31T07:59:58;8.23;;;3.50;;
18875;SDS011;9570;50.854;13.778;2022-10-31T08:02:24;6.70;;;3.70;;
18875;SDS011;9570;50.854;13.778;2022-10-31T08:04:50;5.53;;;3.20;;
18875;SDS011;9570;50.854;13.778;2022-10-31T08:07:16;7.13;;;3.60;;
18875;SDS011;9570;50.854;13.778;2022-10-31T08:09:42;10.37;;;3.67;;
18875;SDS011;9570;50.854;13.778;2022-10-31T08:12:07;8.97;;;3.23;;
18875;SDS011;9570;50.854;13.778;2022-10-31T08:14:33;6.63;;;3.27;;
18875;SDS011;9570;50.854;13.778;2022-10-31T08:16:58;5.37;;;3.47;;
18875;SDS011;9570;50.854;13.778;2022-10-31T08:19:24;7.30;;;3.97;;
18875;SDS011;9570;50.854;13.778;2022-10-31T08:21:50;6.13;;;3.47;;
18875;SDS011;9570;50.854;13.778;2022-10-31T08:24:16;8.73;;;3.67;;
18875;SDS011;9570;50.854;13.778;2022-10-31T08:26:42;12.70;;;4.30;;
18875;SDS011;9570;50.854;13.778;2022-10-31T08:29:07;6.13;;;3.73;;
18875;SDS011;9570;50.854;13.778;2022-10-31T08:31:33;7.07;;;3.60;;
18875;SDS011;9570;50.854;13.778;2022-10-31T08:33:58;9.00;;;3.90;;
18875;SDS011;9570;50.854;13.778;2022-10-31T08:36:24;5.60;;;3.43;;
18875;SDS011;9570;50.854;13.778;2022-10-31T08:38:49;8.23;;;3.50;;
18875;SDS011;9570;50.854;13.778;2022-10-31T08:41:15;5.20;;;3.20;;
18875;SDS011;9570;50.854;13.778;2022-10-31T08:43:40;7.07;;;3.50;;
18875;SDS011;9570;50.854;13.778;2022-10-31T08:46:06;7.47;;;3.50;;
18875;SDS011;9570;50.854;13.778;2022-10-31T08:48:31;6.13;;;3.20;;
18875;SDS011;9570;50.854;13.778;2022-10-31T08:50:57;8.43;;;3.20;;
18875;SDS011;9570;50.854;13.778;2022-10-31T08:53:24;4.93;;;3.00;;
18875;SDS011;9570;50.854;13.778;2022-10-31T08:55:50;10.20;;;3.20;;
18875;SDS011;9570;50.854;13.778;2022-10-31T08:58:17;12.17;;;6.23;;
18875;SDS011;9570;50.854;13.778;2022-10-31T09:00:44;9.17;;;4.20;;
18875;SDS011;9570;50.854;13.778;2022-10-31T09:03:11;6.20;;;2.93;;
18875;SDS011;9570;50.854;13.778;2022-10-31T09:05:38;8.43;;;3.50;;
18875;SDS011;9570;50.854;13.778;2022-10-31T09:08:04;6.90;;;3.17;;
18875;SDS011;9570;50.854;13.778;2022-10-31T09:10:31;8.03;;;2.97;;
18875;SDS011;9570;50.854;13.778;2022-10-31T09:12:59;7.50;;;2.70;;
18875;SDS011;9570;50.854;13.778;2022-10-31T09:15:26;7.93;;;2.83;;
18875;SDS011;9570;50.854;13.778;2022-10-31T09:17:53;4.70;;;3.17;;
18875;SDS011;9570;50.854;13.778;2022-10-31T09:20:19;9.07;;;3.40;;
18875;SDS011;9570;50.854;13.778;2022-10-31T09:22:45;11.37;;;3.60;;
18875;SDS011;9570;50.854;13.778;2022-10-31T09:25:10;7.67;;;3.77;;
18875;SDS011;9570;50.854;13.778;2022-10-31T09:27:36;7.37;;;3.40;;
18875;SDS011;9570;50.854;13.778;2022-10-31T09:30:02;7.80;;;3.20;;
18875;SDS011;9570;50.854;13.778;2022-10-31T09:32:28;6.53;;;3.10;;
18875;SDS011;9570;50.854;13.778;2022-10-31T09:34:54;7.20;;;3.13;;
18875;SDS011;9570;50.854;13.778;2022-10-31T09:37:19;11.53;;;3.40;;
18875;SDS011;9570;50.854;13.778;2022-10-31T09:39:45;13.67;;;6.20;;
18875;SDS011;9570;50.854;13.778;2022-10-31T09:45:04;8.77;;;3.87;;
18875;SDS011;9570;50.854;13.778;2022-10-31T09:50:22;6.87;;;3.13;;
18875;SDS011;9570;50.854;13.778;2022-10-31T09:52:59;10.57;;;3.67;;
18875;SDS011;9570;50.854;13.778;2022-10-31T09:55:40;6.73;;;3.47;;
18875;SDS011;9570;50.854;13.778;2022-10-31T09:58:13;7.60;;;3.50;;
18875;SDS011;9570;50.854;13.778;2022-10-31T10:00:43;7.73;;;3.50;;
18875;SDS011;9570;50.854;13.778;2022-10-31T10:06:02;7.90;;;3.10;;
18875;SDS011;9570;50.854;13.778;2022-10-31T10:08:30;12.07;;;4.03;;
18875;SDS011;9570;50.854;13.778;2022-10-31T10:16:28;9.27;;;3.20;;
18875;SDS011;9570;50.854;13.778;2022-10-31T10:19:25;7.97;;;3.37;;
18875;SDS011;9570;50.854;13.778;2022-10-31T10:22:12;8.77;;;3.07;;
18875;SDS011;9570;50.854;13.778;2022-10-31T10:25:07;9.53;;;3.70;;
18875;SDS011;9570;50.854;13.778;2022-10-31T10:30:39;11.87;;;3.40;;
18875;SDS011;9570;50.854;13.778;2022-10-31T10:33:21;11.57;;;3.40;;
18875;SDS011;9570;50.854;13.778;2022-10-31T10:35:54;10.33;;;3.63;;
18875;SDS011;9570;50.854;13.778;2022-10-31T10:41:00;8.80;;;3.57;;
18875;SDS011;9570;50.854;13.778;2022-10-31T10:43:31;10.80;;;3.40;;
18875;SDS011;9570;50.854;13.778;2022-10-31T10:51:37;9.10;;;3.40;;
18875;SDS011;9570;50.854;13.778;2022-10-31T10:59:53;6.13;;;3.07;;
18875;SDS011;9570;50.854;13.778;2022-10-31T11:02:21;7.10;;;3.30;;
18875;SDS011;9570;50.854;13.778;2022-10-31T11:04:55;7.63;;;3.17;;
18875;SDS011;9570;50.854;13.778;2022-10-31T11:07:24;11.77;;;3.50;;
18875;SDS011;9570;50.854;13.778;2022-10-31T11:09:50;8.43;;;3.20;;
18875;SDS011;9570;50.854;13.778;2022-10-31T11:12:22;8.07;;;3.17;;
18875;SDS011;9570;50.854;13.778;2022-10-31T11:14:57;10.37;;;3.20;;
18875;SDS011;9570;50.854;13.778;2022-10-31T11:17:32;7.50;;;3.30;;
18875;SDS011;9570;50.854;13.778;2022-10-31T11:20:06;8.13;;;3.60;;
18875;SDS011;9570;50.854;13.778;2022-10-31T11:22:43;7.20;;;3.27;;
18875;SDS011;9570;50.854;13.778;2022-10-31T11:27:44;8.97;;;3.20;;
18875;SDS011;9570;50.854;13.778;2022-10-31T11:30:12;8.00;;;3.50;;
18875;SDS011;9570;50.854;13.778;2022-10-31T11:32:43;10.93;;;3.47;;
18875;SDS011;9570;50.854;13.778;2022-10-31T11:35:16;8.10;;;3.40;;
18875;SDS011;9570;50.854;13.778;2022-10-31T11:37:43;9.03;;;3.80;;
18875;SDS011;9570;50.854;13.778;2022-10-31T11:40:19;8.57;;;3.00;;
18875;SDS011;9570;50.854;13.778;2022-10-31T11:42:46;8.53;;;3.33;;
18875;SDS011;9570;50.854;13.778;2022-10-31T11:47:42;7.17;;;3.20;;
18875;SDS011;9570;50.854;13.778;2022-10-31T11:50:18;8.20;;;3.53;;
18875;SDS011;9570;50.854;13.778;2022-10-31T11:52:46;11.87;;;3.57;;
18875;SDS011;9570;50.854;13.778;2022-10-31T11:57:44;10.23;;;3.23;;
18875;SDS011;9570;50.854;13.778;2022-10-31T12:02:48;12.93;;;4.10;;
18875;SDS011;9570;50.854;13.778;2022-10-31T12:05:17;8.73;;;3.33;;
18875;SDS011;9570;50.854;13.778;2022-10-31T12:07:50;7.00;;;3.17;;
18875;SDS011;9570;50.854;13.778;2022-10-31T12:10:15;8.83;;;3.70;;
18875;SDS011;9570;50.854;13.778;2022-10-31T12:23:45;5.63;;;3.03;;
18875;SDS011;9570;50.854;13.778;2022-10-31T12:26:24;9.33;;;3.33;;
18875;SDS011;9570;50.854;13.778;2022-10-31T12:31:46;9.07;;;3.20;;
18875;SDS011;9570;50.854;13.778;2022-10-31T12:34:44;8.57;;;3.40;;
18875;SDS011;9570;50.854;13.778;2022-10-31T12:40:01;7.53;;;3.30;;
18875;SDS011;9570;50.854;13.778;2022-10-31T12:42:41;8.30;;;3.50;;
18875;SDS011;9570;50.854;13.778;2022-10-31T12:45:39;13.20;;;3.67;;
18875;SDS011;9570;50.854;13.778;2022-10-31T12:48:14;10.10;;;3.83;;
18875;SDS011;9570;50.854;13.778;2022-10-31T12:56:26;10.77;;;3.77;;
18875;SDS011;9570;50.854;13.778;2022-10-31T12:59:20;7.63;;;3.90;;
18875;SDS011;9570;50.854;13.778;2022-10-31T13:02:40;9.43;;;3.93;;
18875;SDS011;9570;50.854;13.778;2022-10-31T13:04:57;10.97;;;3.57;;
18875;SDS011;9570;50.854;13.778;2022-10-31T13:07:43;11.97;;;3.60;;
18875;SDS011;9570;50.854;13.778;2022-10-31T13:10:15;8.27;;;3.87;;
18875;SDS011;9570;50.854;13.778;2022-10-31T13:12:42;5.57;;;3.30;;
18875;SDS011;9570;50.854;13.778;2022-10-31T13:15:22;10.47;;;3.60;;
18875;SDS011;9570;50.854;13.778;2022-10-31T13:17:59;7.93;;;3.57;;
18875;SDS011;9570;50.854;13.778;2022-10-31T13:20:30;8.80;;;3.87;;
18875;SDS011;9570;50.854;13.778;2022-10-31T13:23:05;9.87;;;3.87;;
18875;SDS011;9570;50.854;13.778;2022-10-31T13:25:44;8.87;;;3.73;;
18875;SDS011;9570;50.854;13.778;2022-10-31T13:28:20;9.60;;;3.53;;
18875;SDS011;9570;50.854;13.778;2022-10-31T13:30:49;10.00;;;3.70;;
18875;SDS011;9570;50.854;13.778;2022-10-31T13:33:20;11.37;;;3.90;;
18875;SDS011;9570;50.854;13.778;2022-10-31T13:38:51;10.33;;;4.40;;
18875;SDS011;9570;50.854;13.778;2022-10-31T13:41:26;10.10;;;4.20;;
18875;SDS011;9570;50.854;13.778;2022-10-31T13:44:22;12.67;;;4.63;;
18875;SDS011;9570;50.854;13.778;2022-10-31T13:46:49;9.47;;;4.33;;
18875;SDS011;9570;50.854;13.778;2022-10-31T13:54:38;9.93;;;4.80;;
18875;SDS011;9570;50.854;13.778;2022-10-31T13:57:31;10.97;;;4.67;;
18875;SDS011;9570;50.854;13.778;2022-10-31T14:00:22;13.17;;;4.87;;
18875;SDS011;9570;50.854;13.778;2022-10-31T14:02:53;10.00;;;4.90;;
18875;SDS011;9570;50.854;13.778;2022-10-31T14:05:22;11.93;;;4.93;;
18875;SDS011;9570;50.854;13.778;2022-10-31T14:07:54;10.70;;;5.40;;
18875;SDS011;9570;50.854;13.778;2022-10-31T14:10:29;10.07;;;4.67;;
18875;SDS011;9570;50.854;13.778;2022-10-31T14:15:59;10.97;;;4.50;;
18875;SDS011;9570;50.854;13.778;2022-10-31T14:20:58;12.13;;;4.80;;
18875;SDS011;9570;50.854;13.778;2022-10-31T14:28:55;11.17;;;4.83;;
18875;SDS011;9570;50.854;13.778;2022-10-31T14:34:04;10.97;;;4.70;;
18875;SDS011;9570;50.854;13.778;2022-10-31T14:39:30;11.43;;;4.83;;
18875;SDS011;9570;50.854;13.778;2022-10-31T14:42:17;11.37;;;4.70;;
18875;SDS011;9570;50.854;13.778;2022-10-31T14:50:37;10.43;;;4.53;;
18875;SDS011;9570;50.854;13.778;2022-10-31T14:53:12;8.93;;;4.70;;
18875;SDS011;9570;50.854;13.778;2022-10-31T14:55:43;9.60;;;4.40;;
18875;SDS011;9570;50.854;13.778;2022-10-31T14:58:15;10.80;;;4.87;;
18875;SDS011;9570;50.854;13.778;2022-10-31T15:00:44;9.63;;;4.83;;
18875;SDS011;9570;50.854;13.778;2022-10-31T15:03:18;10.83;;;4.73;;
18875;SDS011;9570;50.854;13.778;2022-10-31T15:05:52;11.80;;;6.60;;
18875;SDS011;9570;50.854;13.778;2022-10-31T15:08:34;16.13;;;7.53;;
18875;SDS011;9570;50.854;13.778;2022-10-31T15:11:08;11.87;;;5.50;;
18875;SDS011;9570;50.854;13.778;2022-10-31T15:13:40;10.53;;;5.63;;
18875;SDS011;9570;50.854;13.778;2022-10-31T15:16:08;10.70;;;4.80;;
18875;SDS011;9570;50.854;13.778;2022-10-31T15:18:36;11.07;;;4.93;;
18875;SDS011;9570;50.854;13.778;2022-10-31T15:21:10;13.67;;;4.87;;
18875;SDS011;9570;50.854;13.778;2022-10-31T15:23:35;9.80;;;4.40;;
18875;SDS011;9570;50.854;13.778;2022-10-31T15:26:03;10.73;;;4.67;;
18875;SDS011;9570;50.854;13.778;2022-10-31T15:28:30;8.17;;;4.87;;
18875;SDS011;9570;50.854;13.778;2022-10-31T15:30:59;6.87;;;4.30;;
18875;SDS011;9570;50.854;13.778;2022-10-31T15:33:30;8.60;;;4.70;;
18875;SDS011;9570;50.854;13.778;2022-10-31T15:35:58;8.53;;;5.07;;
18875;SDS011;9570;50.854;13.778;2022-10-31T15:38:25;12.90;;;4.60;;
18875;SDS011;9570;50.854;13.778;2022-10-31T15:40:52;13.47;;;4.60;;
18875;SDS011;9570;50.854;13.778;2022-10-31T15:43:20;6.97;;;4.70;;
18875;SDS011;9570;50.854;13.778;2022-10-31T15:45:46;10.13;;;4.00;;
18875;SDS011;9570;50.854;13.778;2022-10-31T15:48:16;12.47;;;4.80;;
18875;SDS011;9570;50.854;13.778;2022-10-31T15:50:48;11.00;;;4.37;;
18875;SDS011;9570;50.854;13.778;2022-10-31T15:53:26;11.50;;;5.10;;
18875;SDS011;9570;50.854;13.778;2022-10-31T15:56:08;14.17;;;4.70;;
18875;SDS011;9570;50.854;13.778;2022-10-31T15:58:41;15.87;;;4.70;;
18875;SDS011;9570;50.854;13.778;2022-10-31T16:01:19;13.83;;;4.90;;
18875;SDS011;9570;50.854;13.778;2022-10-31T16:03:54;12.27;;;4.73;;
18875;SDS011;9570;50.854;13.778;2022-10-31T16:06:37;10.87;;;4.93;;
18875;SDS011;9570;50.854;13.778;2022-10-31T16:09:03;14.40;;;4.70;;
18875;SDS011;9570;50.854;13.778;2022-10-31T16:11:47;13.50;;;4.60;;
18875;SDS011;9570;50.854;13.778;2022-10-31T16:14:15;8.13;;;5.20;;
18875;SDS011;9570;50.854;13.778;2022-10-31T16:16:44;12.23;;;4.57;;
18875;SDS011;9570;50.854;13.778;2022-10-31T16:19:23;9.27;;;4.97;;
18875;SDS011;9570;50.854;13.778;2022-10-31T16:21:53;10.20;;;4.70;;
18875;SDS011;9570;50.854;13.778;2022-10-31T16:26:52;7.93;;;4.93;;
18875;SDS011;9570;50.854;13.778;2022-10-31T16:29:27;12.33;;;5.03;;
18875;SDS011;9570;50.854;13.778;2022-10-31T16:31:58;8.90;;;4.93;;
18875;SDS011;9570;50.854;13.778;2022-10-31T16:34:23;10.03;;;4.90;;
18875;SDS011;9570;50.854;13.778;2022-10-31T16:36:49;14.50;;;5.00;;
18875;SDS011;9570;50.854;13.778;2022-10-31T16:39:14;10.97;;;5.00;;
18875;SDS011;9570;50.854;13.778;2022-10-31T16:41:42;10.07;;;5.20;;
18875;SDS011;9570;50.854;13.778;2022-10-31T16:44:23;11.90;;;5.17;;
18875;SDS011;9570;50.854;13.778;2022-10-31T16:49:31;9.97;;;4.43;;
18875;SDS011;9570;50.854;13.778;2022-10-31T16:51:56;12.03;;;4.97;;
18875;SDS011;9570;50.854;13.778;2022-10-31T16:54:22;10.50;;;4.70;;
18875;SDS011;9570;50.854;13.778;2022-10-31T16:56:47;10.37;;;5.10;;
18875;SDS011;9570;50.854;13.778;2022-10-31T16:59:13;13.90;;;5.00;;
18875;SDS011;9570;50.854;13.778;2022-10-31T17:01:39;11.60;;;4.90;;
18875;SDS011;9570;50.854;13.778;2022-10-31T17:04:07;9.53;;;4.83;;